sensor_id;sensor_type;location;lat;lon;timestamp;temperature;humidity
69895;DHT22;57172;52.034;5.090;2022-08-05T00:02:05;21.90;62.10
69895;DHT22;57172;52.034;5.090;2022-08-05T00:04:36;21.80;62.40
69895;DHT22;57172;52.034;5.090;2022-08-05T00:07:05;21.80;62.70
69895;DHT22;57172;52.034;5.090;2022-08-05T00:09:52;21.70;63.00
69895;DHT22;57172;52.034;5.090;2022-08-05T00:12:20;21.70;63.20
69895;DHT22;57172;52.034;5.090;2022-08-05T00:14:47;21.70;63.30
69895;DHT22;57172;52.034;5.090;2022-08-05T00:17:17;21.60;63.50
69895;DHT22;57172;52.034;5.090;2022-08-05T00:19:54;21.60;63.60
69895;DHT22;57172;52.034;5.090;2022-08-05T00:22:28;21.60;63.80
69895;DHT22;57172;52.034;5.090;2022-08-05T00:24:56;21.60;64.00
69895;DHT22;57172;52.034;5.090;2022-08-05T00:27:23;21.60;64.00
69895;DHT22;57172;52.034;5.090;2022-08-05T00:30:02;21.60;63.90
69895;DHT22;57172;52.034;5.090;2022-08-05T00:32:29;21.60;64.00
69895;DHT22;57172;52.034;5.090;2022-08-05T00:34:56;21.50;64.10
69895;DHT22;57172;52.034;5.090;2022-08-05T00:37:33;21.50;64.10
69895;DHT22;57172;52.034;5.090;2022-08-05T00:40:20;21.50;64.20
69895;DHT22;57172;52.034;5.090;2022-08-05T00:42:55;21.50;64.30
69895;DHT22;57172;52.034;5.090;2022-08-05T00:45:23;21.40;64.50
69895;DHT22;57172;52.034;5.090;2022-08-05T00:48:17;21.40;64.70
69895;DHT22;57172;52.034;5.090;2022-08-05T00:50:56;21.30;64.70
69895;DHT22;57172;52.034;5.090;2022-08-05T00:53:23;21.30;65.00
69895;DHT22;57172;52.034;5.090;2022-08-05T00:56:10;21.30;65.00
69895;DHT22;57172;52.034;5.090;2022-08-05T00:58:37;21.30;65.00
69895;DHT22;57172;52.034;5.090;2022-08-05T01:01:09;21.30;65.10
69895;DHT22;57172;52.034;5.090;2022-08-05T01:03:38;21.30;65.10
69895;DHT22;57172;52.034;5.090;2022-08-05T01:06:06;21.30;65.00
69895;DHT22;57172;52.034;5.090;2022-08-05T01:08:41;21.30;65.00
69895;DHT22;57172;52.034;5.090;2022-08-05T01:11:23;21.30;65.10
69895;DHT22;57172;52.034;5.090;2022-08-05T01:14:26;21.30;65.10
69895;DHT22;57172;52.034;5.090;2022-08-05T01:20:26;21.30;65.10
69895;DHT22;57172;52.034;5.090;2022-08-05T01:23:20;21.20;65.00
69895;DHT22;57172;52.034;5.090;2022-08-05T01:29:07;21.20;65.20
69895;DHT22;57172;52.034;5.090;2022-08-05T01:31:50;21.10;65.30
69895;DHT22;57172;52.034;5.090;2022-08-05T01:34:24;21.10;65.30
69895;DHT22;57172;52.034;5.090;2022-08-05T01:37:09;21.10;65.40
69895;DHT22;57172;52.034;5.090;2022-08-05T01:39:51;21.10;65.40
69895;DHT22;57172;52.034;5.090;2022-08-05T01:42:26;21.20;65.30
69895;DHT22;57172;52.034;5.090;2022-08-05T01:44:58;21.20;65.30
69895;DHT22;57172;52.034;5.090;2022-08-05T01:47:30;21.20;65.30
69895;DHT22;57172;52.034;5.090;2022-08-05T01:50:13;21.20;65.20
69895;DHT22;57172;52.034;5.090;2022-08-05T01:52:45;21.20;65.10
69895;DHT22;57172;52.034;5.090;2022-08-05T01:55:17;21.20;65.20
69895;DHT22;57172;52.034;5.090;2022-08-05T01:57:46;21.20;65.10
69895;DHT22;57172;52.034;5.090;2022-08-05T02:00:36;21.20;65.10
69895;DHT22;57172;52.034;5.090;2022-08-05T02:03:27;21.20;65.10
69895;DHT22;57172;52.034;5.090;2022-08-05T02:06:01;21.30;65.20
69895;DHT22;57172;52.034;5.090;2022-08-05T02:08:48;21.20;65.20
69895;DHT22;57172;52.034;5.090;2022-08-05T02:11:24;21.20;65.30
69895;DHT22;57172;52.034;5.090;2022-08-05T02:14:11;21.10;65.60
69895;DHT22;57172;52.034;5.090;2022-08-05T02:16:54;21.10;65.70
69895;DHT22;57172;52.034;5.090;2022-08-05T02:22:22;21.00;65.80
69895;DHT22;57172;52.034;5.090;2022-08-05T02:25:05;21.00;65.80
69895;DHT22;57172;52.034;5.090;2022-08-05T02:27:39;21.00;66.00
69895;DHT22;57172;52.034;5.090;2022-08-05T02:30:29;20.90;66.10
69895;DHT22;57172;52.034;5.090;2022-08-05T02:33:01;20.90;66.30
69895;DHT22;57172;52.034;5.090;2022-08-05T02:35:31;20.80;66.40
69895;DHT22;57172;52.034;5.090;2022-08-05T02:38:05;20.80;66.50
69895;DHT22;57172;52.034;5.090;2022-08-05T02:40:37;20.70;66.60
69895;DHT22;57172;52.034;5.090;2022-08-05T02:43:07;20.70;66.60
69895;DHT22;57172;52.034;5.090;2022-08-05T02:45:37;20.70;66.60
69895;DHT22;57172;52.034;5.090;2022-08-05T02:48:20;20.60;66.70
69895;DHT22;57172;52.034;5.090;2022-08-05T02:50:59;20.60;66.70
69895;DHT22;57172;52.034;5.090;2022-08-05T02:53:28;20.60;66.60
69895;DHT22;57172;52.034;5.090;2022-08-05T02:56:07;20.60;66.60
69895;DHT22;57172;52.034;5.090;2022-08-05T02:58:36;20.50;66.70
69895;DHT22;57172;52.034;5.090;2022-08-05T03:01:13;20.50;66.70
69895;DHT22;57172;52.034;5.090;2022-08-05T03:03:49;20.50;66.90
69895;DHT22;57172;52.034;5.090;2022-08-05T03:06:37;20.40;67.10
69895;DHT22;57172;52.034;5.090;2022-08-05T03:09:25;20.40;67.00
69895;DHT22;57172;52.034;5.090;2022-08-05T03:12:03;20.50;67.10
69895;DHT22;57172;52.034;5.090;2022-08-05T03:14:30;20.50;67.10
69895;DHT22;57172;52.034;5.090;2022-08-05T03:16:56;20.50;67.00
69895;DHT22;57172;52.034;5.090;2022-08-05T03:19:24;20.50;67.00
69895;DHT22;57172;52.034;5.090;2022-08-05T03:22:02;20.50;67.00
69895;DHT22;57172;52.034;5.090;2022-08-05T03:24:46;20.50;66.90
69895;DHT22;57172;52.034;5.090;2022-08-05T03:27:19;20.50;66.90
69895;DHT22;57172;52.034;5.090;2022-08-05T03:29:46;20.50;66.90
69895;DHT22;57172;52.034;5.090;2022-08-05T03:32:33;20.50;66.80
69895;DHT22;57172;52.034;5.090;2022-08-05T03:35:01;20.50;66.70
69895;DHT22;57172;52.034;5.090;2022-08-05T03:37:31;20.50;66.70
69895;DHT22;57172;52.034;5.090;2022-08-05T03:40:12;20.50;66.60
69895;DHT22;57172;52.034;5.090;2022-08-05T03:42:41;20.50;66.40
69895;DHT22;57172;52.034;5.090;2022-08-05T03:45:18;20.40;66.30
69895;DHT22;57172;52.034;5.090;2022-08-05T03:47:48;20.40;66.40
69895;DHT22;57172;52.034;5.090;2022-08-05T03:50:16;20.40;66.30
69895;DHT22;57172;52.034;5.090;2022-08-05T03:53:00;20.50;66.10
69895;DHT22;57172;52.034;5.090;2022-08-05T03:55:56;20.50;65.90
69895;DHT22;57172;52.034;5.090;2022-08-05T03:58:41;20.50;65.70
69895;DHT22;57172;52.034;5.090;2022-08-05T04:01:12;20.50;65.70
69895;DHT22;57172;52.034;5.090;2022-08-05T04:03:41;20.50;65.60
69895;DHT22;57172;52.034;5.090;2022-08-05T04:06:32;20.50;65.60
69895;DHT22;57172;52.034;5.090;2022-08-05T04:09:00;20.50;65.70
69895;DHT22;57172;52.034;5.090;2022-08-05T04:11:30;20.50;65.70
69895;DHT22;57172;52.034;5.090;2022-08-05T04:14:17;20.40;65.70
69895;DHT22;57172;52.034;5.090;2022-08-05T04:16:57;20.40;65.80
69895;DHT22;57172;52.034;5.090;2022-08-05T04:19:28;20.40;65.70
69895;DHT22;57172;52.034;5.090;2022-08-05T04:21:55;20.40;65.60
69895;DHT22;57172;52.034;5.090;2022-08-05T04:24:39;20.30;65.50
69895;DHT22;57172;52.034;5.090;2022-08-05T04:27:13;20.20;65.40
69895;DHT22;57172;52.034;5.090;2022-08-05T04:29:41;20.20;65.50
69895;DHT22;57172;52.034;5.090;2022-08-05T04:32:08;20.10;65.40
69895;DHT22;57172;52.034;5.090;2022-08-05T04:34:35;20.10;65.40
69895;DHT22;57172;52.034;5.090;2022-08-05T04:37:08;20.00;65.30
69895;DHT22;57172;52.034;5.090;2022-08-05T04:39:36;19.90;65.20
69895;DHT22;57172;52.034;5.090;2022-08-05T04:42:05;19.90;65.10
69895;DHT22;57172;52.034;5.090;2022-08-05T04:44:32;19.80;65.10
69895;DHT22;57172;52.034;5.090;2022-08-05T04:46:59;19.80;65.20
69895;DHT22;57172;52.034;5.090;2022-08-05T04:49:37;19.70;65.10
69895;DHT22;57172;52.034;5.090;2022-08-05T04:52:24;19.70;64.90
69895;DHT22;57172;52.034;5.090;2022-08-05T04:54:53;19.70;64.80
69895;DHT22;57172;52.034;5.090;2022-08-05T04:57:24;19.60;64.70
69895;DHT22;57172;52.034;5.090;2022-08-05T04:59:55;19.60;64.80
69895;DHT22;57172;52.034;5.090;2022-08-05T05:02:24;19.50;64.90
69895;DHT22;57172;52.034;5.090;2022-08-05T05:05:07;19.50;65.00
69895;DHT22;57172;52.034;5.090;2022-08-05T05:08:04;19.50;65.00
69895;DHT22;57172;52.034;5.090;2022-08-05T05:10:42;19.40;65.00
69895;DHT22;57172;52.034;5.090;2022-08-05T05:13:22;19.40;65.20
69895;DHT22;57172;52.034;5.090;2022-08-05T05:15:49;19.40;65.30
69895;DHT22;57172;52.034;5.090;2022-08-05T05:18:23;19.40;65.50
69895;DHT22;57172;52.034;5.090;2022-08-05T05:20:59;19.40;65.60
69895;DHT22;57172;52.034;5.090;2022-08-05T05:23:26;19.40;65.50
69895;DHT22;57172;52.034;5.090;2022-08-05T05:26:13;19.40;65.60
69895;DHT22;57172;52.034;5.090;2022-08-05T05:28:41;19.40;65.50
69895;DHT22;57172;52.034;5.090;2022-08-05T05:31:11;19.40;65.50
69895;DHT22;57172;52.034;5.090;2022-08-05T05:33:37;19.40;65.50
69895;DHT22;57172;52.034;5.090;2022-08-05T05:36:24;19.40;65.50
69895;DHT22;57172;52.034;5.090;2022-08-05T05:38:55;19.40;65.50
69895;DHT22;57172;52.034;5.090;2022-08-05T05:41:23;19.40;65.60
69895;DHT22;57172;52.034;5.090;2022-08-05T05:43:50;19.40;65.60
69895;DHT22;57172;52.034;5.090;2022-08-05T05:46:25;19.40;65.50
69895;DHT22;57172;52.034;5.090;2022-08-05T05:48:52;19.40;65.60
69895;DHT22;57172;52.034;5.090;2022-08-05T05:51:23;19.40;65.50
69895;DHT22;57172;52.034;5.090;2022-08-05T05:53:52;19.50;65.30
69895;DHT22;57172;52.034;5.090;2022-08-05T05:56:29;19.50;64.80
69895;DHT22;57172;52.034;5.090;2022-08-05T05:59:03;19.50;64.50
69895;DHT22;57172;52.034;5.090;2022-08-05T06:01:32;19.50;64.50
69895;DHT22;57172;52.034;5.090;2022-08-05T06:04:09;19.60;64.10
69895;DHT22;57172;52.034;5.090;2022-08-05T06:06:42;19.60;63.50
69895;DHT22;57172;52.034;5.090;2022-08-05T06:09:15;19.60;63.10
69895;DHT22;57172;52.034;5.090;2022-08-05T06:12:02;19.60;62.60
69895;DHT22;57172;52.034;5.090;2022-08-05T06:14:30;19.60;62.60
69895;DHT22;57172;52.034;5.090;2022-08-05T06:16:59;19.60;62.30
69895;DHT22;57172;52.034;5.090;2022-08-05T06:19:28;19.60;62.30
69895;DHT22;57172;52.034;5.090;2022-08-05T06:22:02;19.70;61.90
69895;DHT22;57172;52.034;5.090;2022-08-05T06:24:30;19.70;61.80
69895;DHT22;57172;52.034;5.090;2022-08-05T06:26:57;19.80;61.70
69895;DHT22;57172;52.034;5.090;2022-08-05T06:29:24;19.80;61.30
69895;DHT22;57172;52.034;5.090;2022-08-05T06:32:11;19.90;61.20
69895;DHT22;57172;52.034;5.090;2022-08-05T06:34:51;20.00;60.30
69895;DHT22;57172;52.034;5.090;2022-08-05T06:37:22;20.00;59.40
69895;DHT22;57172;52.034;5.090;2022-08-05T06:40:09;20.00;59.30
69895;DHT22;57172;52.034;5.090;2022-08-05T06:42:37;20.00;59.00
69895;DHT22;57172;52.034;5.090;2022-08-05T06:45:06;20.10;59.10
69895;DHT22;57172;52.034;5.090;2022-08-05T06:47:35;20.10;59.10
69895;DHT22;57172;52.034;5.090;2022-08-05T06:50:22;20.20;58.50
69895;DHT22;57172;52.034;5.090;2022-08-05T06:52:50;20.30;58.50
69895;DHT22;57172;52.034;5.090;2022-08-05T06:55:37;20.30;58.00
69895;DHT22;57172;52.034;5.090;2022-08-05T06:58:08;20.40;58.00
69895;DHT22;57172;52.034;5.090;2022-08-05T07:00:57;20.40;58.10
69895;DHT22;57172;52.034;5.090;2022-08-05T07:03:26;20.50;57.90
69895;DHT22;57172;52.034;5.090;2022-08-05T07:05:59;20.60;57.90
69895;DHT22;57172;52.034;5.090;2022-08-05T07:08:43;20.70;57.80
69895;DHT22;57172;52.034;5.090;2022-08-05T07:11:17;20.70;58.00
69895;DHT22;57172;52.034;5.090;2022-08-05T07:13:51;20.80;58.00
69895;DHT22;57172;52.034;5.090;2022-08-05T07:16:47;20.90;58.00
69895;DHT22;57172;52.034;5.090;2022-08-05T07:19:36;21.00;57.70
69895;DHT22;57172;52.034;5.090;2022-08-05T07:22:23;21.10;57.20
69895;DHT22;57172;52.034;5.090;2022-08-05T07:24:53;21.10;57.30
69895;DHT22;57172;52.034;5.090;2022-08-05T07:27:20;21.10;57.30
69895;DHT22;57172;52.034;5.090;2022-08-05T07:29:53;21.20;57.50
69895;DHT22;57172;52.034;5.090;2022-08-05T07:32:39;21.30;57.40
69895;DHT22;57172;52.034;5.090;2022-08-05T07:35:08;21.40;56.50
69895;DHT22;57172;52.034;5.090;2022-08-05T07:37:55;21.50;56.00
69895;DHT22;57172;52.034;5.090;2022-08-05T07:40:22;21.60;55.30
69895;DHT22;57172;52.034;5.090;2022-08-05T07:42:58;21.60;54.70
69895;DHT22;57172;52.034;5.090;2022-08-05T07:45:31;21.70;54.80
69895;DHT22;57172;52.034;5.090;2022-08-05T07:48:18;21.70;54.30
69895;DHT22;57172;52.034;5.090;2022-08-05T07:51:05;21.80;52.60
69895;DHT22;57172;52.034;5.090;2022-08-05T07:53:48;21.80;51.90
69895;DHT22;57172;52.034;5.090;2022-08-05T07:56:17;21.90;50.50
69895;DHT22;57172;52.034;5.090;2022-08-05T07:59:04;22.00;50.70
69895;DHT22;57172;52.034;5.090;2022-08-05T08:01:34;22.10;50.80
69895;DHT22;57172;52.034;5.090;2022-08-05T08:04:17;22.30;49.00
69895;DHT22;57172;52.034;5.090;2022-08-05T08:07:04;22.30;49.30
69895;DHT22;57172;52.034;5.090;2022-08-05T08:09:33;22.40;49.70
69895;DHT22;57172;52.034;5.090;2022-08-05T08:12:03;22.50;48.40
69895;DHT22;57172;52.034;5.090;2022-08-05T08:14:45;22.60;48.60
69895;DHT22;57172;52.034;5.090;2022-08-05T08:17:13;22.70;48.00
69895;DHT22;57172;52.034;5.090;2022-08-05T08:19:43;22.90;47.90
69895;DHT22;57172;52.034;5.090;2022-08-05T08:22:30;23.20;47.30
69895;DHT22;57172;52.034;5.090;2022-08-05T08:24:58;23.40;45.30
69895;DHT22;57172;52.034;5.090;2022-08-05T08:27:29;23.60;45.30
69895;DHT22;57172;52.034;5.090;2022-08-05T08:30:11;23.90;44.80
69895;DHT22;57172;52.034;5.090;2022-08-05T08:32:58;24.30;45.20
69895;DHT22;57172;52.034;5.090;2022-08-05T08:35:30;24.90;44.70
69895;DHT22;57172;52.034;5.090;2022-08-05T08:38:07;25.20;44.20
69895;DHT22;57172;52.034;5.090;2022-08-05T08:40:42;25.50;44.00
69895;DHT22;57172;52.034;5.090;2022-08-05T08:43:18;25.70;43.80
69895;DHT22;57172;52.034;5.090;2022-08-05T08:46:05;25.80;43.80
69895;DHT22;57172;52.034;5.090;2022-08-05T08:48:44;26.10;45.00
69895;DHT22;57172;52.034;5.090;2022-08-05T08:51:33;26.70;42.90
69895;DHT22;57172;52.034;5.090;2022-08-05T08:54:19;27.10;42.50
69895;DHT22;57172;52.034;5.090;2022-08-05T08:56:53;27.80;42.80
69895;DHT22;57172;52.034;5.090;2022-08-05T08:59:22;28.40;42.50
69895;DHT22;57172;52.034;5.090;2022-08-05T09:02:00;29.20;41.20
69895;DHT22;57172;52.034;5.090;2022-08-05T09:04:35;29.80;39.70
69895;DHT22;57172;52.034;5.090;2022-08-05T09:07:25;30.30;38.70
69895;DHT22;57172;52.034;5.090;2022-08-05T09:09:55;30.70;38.20
69895;DHT22;57172;52.034;5.090;2022-08-05T09:12:22;31.00;37.70
69895;DHT22;57172;52.034;5.090;2022-08-05T09:14:55;31.30;37.50
69895;DHT22;57172;52.034;5.090;2022-08-05T09:17:32;31.70;37.00
69895;DHT22;57172;52.034;5.090;2022-08-05T09:20:10;32.00;35.90
69895;DHT22;57172;52.034;5.090;2022-08-05T09:23:03;31.70;35.30
69895;DHT22;57172;52.034;5.090;2022-08-05T09:25:34;31.10;35.40
69895;DHT22;57172;52.034;5.090;2022-08-05T09:28:23;30.40;36.10
69895;DHT22;57172;52.034;5.090;2022-08-05T09:31:01;29.80;37.00
69895;DHT22;57172;52.034;5.090;2022-08-05T09:33:55;29.20;37.40
69895;DHT22;57172;52.034;5.090;2022-08-05T09:39:23;28.40;37.80
69895;DHT22;57172;52.034;5.090;2022-08-05T09:42:10;27.90;38.30
69895;DHT22;57172;52.034;5.090;2022-08-05T09:44:53;27.60;38.30
69895;DHT22;57172;52.034;5.090;2022-08-05T09:47:26;27.30;38.50
69895;DHT22;57172;52.034;5.090;2022-08-05T09:50:03;27.00;38.70
69895;DHT22;57172;52.034;5.090;2022-08-05T09:52:34;26.70;39.30
69895;DHT22;57172;52.034;5.090;2022-08-05T09:57:51;26.40;40.60
69895;DHT22;57172;52.034;5.090;2022-08-05T10:00:24;26.10;41.10
69895;DHT22;57172;52.034;5.090;2022-08-05T10:02:53;26.00;41.40
69895;DHT22;57172;52.034;5.090;2022-08-05T10:05:26;25.80;41.60
69895;DHT22;57172;52.034;5.090;2022-08-05T10:07:59;25.60;41.80
69895;DHT22;57172;52.034;5.090;2022-08-05T10:10:48;25.40;42.00
69895;DHT22;57172;52.034;5.090;2022-08-05T10:13:32;25.20;42.20
69895;DHT22;57172;52.034;5.090;2022-08-05T10:16:34;25.20;42.70
69895;DHT22;57172;52.034;5.090;2022-08-05T10:19:18;25.10;42.50
69895;DHT22;57172;52.034;5.090;2022-08-05T10:21:57;24.90;42.40
69895;DHT22;57172;52.034;5.090;2022-08-05T10:24:25;24.70;42.40
69895;DHT22;57172;52.034;5.090;2022-08-05T10:26:52;24.70;42.00
69895;DHT22;57172;52.034;5.090;2022-08-05T10:29:26;24.60;41.70
69895;DHT22;57172;52.034;5.090;2022-08-05T10:32:15;24.50;41.30
69895;DHT22;57172;52.034;5.090;2022-08-05T10:35:02;24.30;41.40
69895;DHT22;57172;52.034;5.090;2022-08-05T10:37:30;24.30;41.60
69895;DHT22;57172;52.034;5.090;2022-08-05T10:40:40;24.20;41.90
69895;DHT22;57172;52.034;5.090;2022-08-05T10:43:30;24.20;41.80
69895;DHT22;57172;52.034;5.090;2022-08-05T10:46:05;24.10;41.40
69895;DHT22;57172;52.034;5.090;2022-08-05T10:48:41;24.10;41.50
69895;DHT22;57172;52.034;5.090;2022-08-05T10:51:24;24.40;40.60
69895;DHT22;57172;52.034;5.090;2022-08-05T10:53:58;24.40;40.10
69895;DHT22;57172;52.034;5.090;2022-08-05T10:56:48;24.40;38.50
69895;DHT22;57172;52.034;5.090;2022-08-05T10:59:24;24.50;37.30
69895;DHT22;57172;52.034;5.090;2022-08-05T11:02:13;24.60;37.00
69895;DHT22;57172;52.034;5.090;2022-08-05T11:05:05;24.60;37.30
69895;DHT22;57172;52.034;5.090;2022-08-05T11:07:58;25.00;38.00
69895;DHT22;57172;52.034;5.090;2022-08-05T11:10:29;25.50;37.20
69895;DHT22;57172;52.034;5.090;2022-08-05T11:12:57;25.50;37.90
69895;DHT22;57172;52.034;5.090;2022-08-05T11:15:29;25.40;38.70
69895;DHT22;57172;52.034;5.090;2022-08-05T11:18:30;25.40;39.10
69895;DHT22;57172;52.034;5.090;2022-08-05T11:21:00;25.30;39.70
69895;DHT22;57172;52.034;5.090;2022-08-05T11:26:38;25.80;40.00
69895;DHT22;57172;52.034;5.090;2022-08-05T11:29:38;26.60;38.90
69895;DHT22;57172;52.034;5.090;2022-08-05T11:32:27;27.20;37.70
69895;DHT22;57172;52.034;5.090;2022-08-05T11:34:55;27.70;36.70
69895;DHT22;57172;52.034;5.090;2022-08-05T11:43:29;28.20;36.40
69895;DHT22;57172;52.034;5.090;2022-08-05T11:46:16;28.70;36.00
69895;DHT22;57172;52.034;5.090;2022-08-05T11:48:59;29.30;35.90
69895;DHT22;57172;52.034;5.090;2022-08-05T11:51:27;30.00;34.50
69895;DHT22;57172;52.034;5.090;2022-08-05T11:54:22;30.50;34.00
69895;DHT22;57172;52.034;5.090;2022-08-05T11:57:02;31.20;33.50
69895;DHT22;57172;52.034;5.090;2022-08-05T11:59:49;31.00;33.20
69895;DHT22;57172;52.034;5.090;2022-08-05T12:02:16;30.60;33.50
69895;DHT22;57172;52.034;5.090;2022-08-05T12:04:58;30.10;33.60
69895;DHT22;57172;52.034;5.090;2022-08-05T12:07:32;29.60;34.00
69895;DHT22;57172;52.034;5.090;2022-08-05T12:10:21;28.80;35.10
69895;DHT22;57172;52.034;5.090;2022-08-05T12:13:09;28.50;35.60
69895;DHT22;57172;52.034;5.090;2022-08-05T12:15:44;28.70;36.90
69895;DHT22;57172;52.034;5.090;2022-08-05T12:18:26;29.50;36.10
69895;DHT22;57172;52.034;5.090;2022-08-05T12:21:25;30.00;33.60
69895;DHT22;57172;52.034;5.090;2022-08-05T12:26:47;30.10;34.10
69895;DHT22;57172;52.034;5.090;2022-08-05T12:29:22;30.10;34.50
69895;DHT22;57172;52.034;5.090;2022-08-05T12:31:51;30.20;34.90
69895;DHT22;57172;52.034;5.090;2022-08-05T12:34:31;30.40;33.80
69895;DHT22;57172;52.034;5.090;2022-08-05T12:37:07;30.50;34.00
69895;DHT22;57172;52.034;5.090;2022-08-05T12:39:49;30.40;34.10
69895;DHT22;57172;52.034;5.090;2022-08-05T12:42:18;30.10;34.40
69895;DHT22;57172;52.034;5.090;2022-08-05T12:44:46;29.80;34.10
69895;DHT22;57172;52.034;5.090;2022-08-05T12:47:24;29.60;34.30
69895;DHT22;57172;52.034;5.090;2022-08-05T12:49:54;29.60;34.40
69895;DHT22;57172;52.034;5.090;2022-08-05T12:52:32;29.80;34.70
69895;DHT22;57172;52.034;5.090;2022-08-05T12:55:26;30.20;35.00
69895;DHT22;57172;52.034;5.090;2022-08-05T12:57:55;31.10;34.30
69895;DHT22;57172;52.034;5.090;2022-08-05T13:00:44;31.70;34.00
69895;DHT22;57172;52.034;5.090;2022-08-05T13:03:36;32.20;33.40
69895;DHT22;57172;52.034;5.090;2022-08-05T13:06:11;32.30;31.90
69895;DHT22;57172;52.034;5.090;2022-08-05T13:08:38;32.30;32.40
69895;DHT22;57172;52.034;5.090;2022-08-05T13:11:05;32.30;31.90
69895;DHT22;57172;52.034;5.090;2022-08-05T13:13:37;32.00;31.80
69895;DHT22;57172;52.034;5.090;2022-08-05T13:16:25;32.00;31.70
69895;DHT22;57172;52.034;5.090;2022-08-05T13:18:55;31.80;31.20
69895;DHT22;57172;52.034;5.090;2022-08-05T13:21:25;31.50;31.20
69895;DHT22;57172;52.034;5.090;2022-08-05T13:24:04;31.00;31.20
69895;DHT22;57172;52.034;5.090;2022-08-05T13:26:34;30.40;31.50
69895;DHT22;57172;52.034;5.090;2022-08-05T13:29:01;30.40;31.60
69895;DHT22;57172;52.034;5.090;2022-08-05T13:31:31;30.60;30.90
69895;DHT22;57172;52.034;5.090;2022-08-05T13:34:17;30.80;30.30
69895;DHT22;57172;52.034;5.090;2022-08-05T13:36:51;30.20;30.50
69895;DHT22;57172;52.034;5.090;2022-08-05T13:39:18;29.90;30.50
69895;DHT22;57172;52.034;5.090;2022-08-05T13:42:06;30.00;30.60
69895;DHT22;57172;52.034;5.090;2022-08-05T13:44:43;30.30;30.60
69895;DHT22;57172;52.034;5.090;2022-08-05T13:47:12;30.80;30.50
69895;DHT22;57172;52.034;5.090;2022-08-05T13:50:00;31.30;30.20
69895;DHT22;57172;52.034;5.090;2022-08-05T13:52:31;31.90;29.20
69895;DHT22;57172;52.034;5.090;2022-08-05T13:55:02;32.20;29.20
69895;DHT22;57172;52.034;5.090;2022-08-05T13:57:33;32.30;29.30
69895;DHT22;57172;52.034;5.090;2022-08-05T14:00:18;32.40;29.00
69895;DHT22;57172;52.034;5.090;2022-08-05T14:02:54;31.80;29.00
69895;DHT22;57172;52.034;5.090;2022-08-05T14:05:21;31.20;29.90
69895;DHT22;57172;52.034;5.090;2022-08-05T14:08:08;31.10;30.50
69895;DHT22;57172;52.034;5.090;2022-08-05T14:10:47;30.80;30.60
69895;DHT22;57172;52.034;5.090;2022-08-05T14:13:14;30.10;31.40
69895;DHT22;57172;52.034;5.090;2022-08-05T14:15:42;29.80;31.90
69895;DHT22;57172;52.034;5.090;2022-08-05T14:18:28;29.80;31.80
69895;DHT22;57172;52.034;5.090;2022-08-05T14:20:55;29.60;32.10
69895;DHT22;57172;52.034;5.090;2022-08-05T14:23:22;29.40;32.10
69895;DHT22;57172;52.034;5.090;2022-08-05T14:26:00;29.10;32.60
69895;DHT22;57172;52.034;5.090;2022-08-05T14:28:30;28.80;33.20
69895;DHT22;57172;52.034;5.090;2022-08-05T14:30:58;28.60;33.50
69895;DHT22;57172;52.034;5.090;2022-08-05T14:33:28;28.40;33.70
69895;DHT22;57172;52.034;5.090;2022-08-05T14:36:17;28.50;34.10
69895;DHT22;57172;52.034;5.090;2022-08-05T14:38:48;28.60;34.00
69895;DHT22;57172;52.034;5.090;2022-08-05T14:41:15;28.70;34.20
69895;DHT22;57172;52.034;5.090;2022-08-05T14:43:44;28.80;34.10
69895;DHT22;57172;52.034;5.090;2022-08-05T14:46:30;28.50;34.70
69895;DHT22;57172;52.034;5.090;2022-08-05T14:49:01;28.10;35.90
69895;DHT22;57172;52.034;5.090;2022-08-05T14:51:38;27.50;36.80
69895;DHT22;57172;52.034;5.090;2022-08-05T14:54:08;27.10;37.80
69895;DHT22;57172;52.034;5.090;2022-08-05T14:56:55;26.90;38.50
69895;DHT22;57172;52.034;5.090;2022-08-05T14:59:22;26.80;39.10
69895;DHT22;57172;52.034;5.090;2022-08-05T15:01:49;26.60;39.60
69895;DHT22;57172;52.034;5.090;2022-08-05T15:04:20;26.40;39.80
69895;DHT22;57172;52.034;5.090;2022-08-05T15:06:51;26.20;39.80
69895;DHT22;57172;52.034;5.090;2022-08-05T15:09:20;26.20;40.50
69895;DHT22;57172;52.034;5.090;2022-08-05T15:12:07;26.40;40.10
69895;DHT22;57172;52.034;5.090;2022-08-05T15:14:37;26.50;40.10
69895;DHT22;57172;52.034;5.090;2022-08-05T15:17:19;26.90;39.20
69895;DHT22;57172;52.034;5.090;2022-08-05T15:20:08;27.30;38.80
69895;DHT22;57172;52.034;5.090;2022-08-05T15:22:44;27.40;37.60
69895;DHT22;57172;52.034;5.090;2022-08-05T15:25:18;27.20;37.70
69895;DHT22;57172;52.034;5.090;2022-08-05T15:28:05;27.40;37.90
69895;DHT22;57172;52.034;5.090;2022-08-05T15:30:33;27.60;37.10
69895;DHT22;57172;52.034;5.090;2022-08-05T15:33:03;27.90;36.70
69895;DHT22;57172;52.034;5.090;2022-08-05T15:35:30;28.10;36.30
69895;DHT22;57172;52.034;5.090;2022-08-05T15:38:10;28.40;36.10
69895;DHT22;57172;52.034;5.090;2022-08-05T15:40:57;28.50;35.80
69895;DHT22;57172;52.034;5.090;2022-08-05T15:43:44;28.40;35.90
69895;DHT22;57172;52.034;5.090;2022-08-05T15:46:15;28.30;35.90
69895;DHT22;57172;52.034;5.090;2022-08-05T15:48:43;28.10;35.80
69895;DHT22;57172;52.034;5.090;2022-08-05T15:51:27;27.90;35.90
69895;DHT22;57172;52.034;5.090;2022-08-05T15:54:14;27.80;36.10
69895;DHT22;57172;52.034;5.090;2022-08-05T15:56:41;27.70;36.00
69895;DHT22;57172;52.034;5.090;2022-08-05T15:59:09;27.50;36.20
69895;DHT22;57172;52.034;5.090;2022-08-05T16:01:47;27.50;36.30
69895;DHT22;57172;52.034;5.090;2022-08-05T16:04:22;27.50;36.40
69895;DHT22;57172;52.034;5.090;2022-08-05T16:06:54;27.50;35.90
69895;DHT22;57172;52.034;5.090;2022-08-05T16:09:25;27.50;35.60
69895;DHT22;57172;52.034;5.090;2022-08-05T16:11:52;27.40;35.80
69895;DHT22;57172;52.034;5.090;2022-08-05T16:14:20;27.50;36.00
69895;DHT22;57172;52.034;5.090;2022-08-05T16:16:48;27.60;35.60
69895;DHT22;57172;52.034;5.090;2022-08-05T16:19:15;27.60;35.10
69895;DHT22;57172;52.034;5.090;2022-08-05T16:21:51;27.40;35.30
69895;DHT22;57172;52.034;5.090;2022-08-05T16:24:26;27.20;35.30
69895;DHT22;57172;52.034;5.090;2022-08-05T16:27:13;27.10;35.70
69895;DHT22;57172;52.034;5.090;2022-08-05T16:29:42;27.20;35.70
69895;DHT22;57172;52.034;5.090;2022-08-05T16:32:17;27.40;35.40
69895;DHT22;57172;52.034;5.090;2022-08-05T16:34:54;27.30;35.30
69895;DHT22;57172;52.034;5.090;2022-08-05T16:37:22;27.10;35.00
69895;DHT22;57172;52.034;5.090;2022-08-05T16:40:09;27.00;35.00
69895;DHT22;57172;52.034;5.090;2022-08-05T16:42:51;26.50;35.00
69895;DHT22;57172;52.034;5.090;2022-08-05T16:45:18;26.10;35.70
69895;DHT22;57172;52.034;5.090;2022-08-05T16:48:05;26.20;35.80
69895;DHT22;57172;52.034;5.090;2022-08-05T16:50:31;26.30;35.20
69895;DHT22;57172;52.034;5.090;2022-08-05T16:52:58;26.10;35.50
69895;DHT22;57172;52.034;5.090;2022-08-05T16:55:46;26.10;35.90